.
WxDataArchive / Data Records for 2008-05-25
2008-05-24 May 2008 2008-05-26

Data Records for Sunday, 25 May 2008

Time	Temp	Chill	HIndex	Humid	Dewpt	 Wind 	HiWind	WindDir	Rain 	Barom 
-----	----	-----	------	-----	-----	------	------	-------	-----	----- 
00:00	53.9	53.9	53.9	69	44.0	0	1	90	0.00	30.076 
00:05	53.8	53.8	53.8	70	44.2	0	1	90	0.00	30.075 
00:10	53.6	53.6	53.6	70	44.1	0	1	90	0.00	30.076 
00:15	53.3	53.3	53.3	71	44.1	0	0	---	0.00	30.081 
00:20	53.1	53.1	53.1	72	44.3	0	1	90	0.00	30.082 
00:25	52.8	52.8	52.8	72	44.0	0	0	---	0.00	30.082 
00:30	52.3	52.3	52.3	73	43.9	0	0	---	0.00	30.083 
00:35	52.0	52.0	52.0	74	44.0	0	0	---	0.00	30.082 
00:40	51.6	51.6	51.6	75	43.9	0	0	---	0.00	30.082 
00:45	51.1	51.1	51.1	76	43.8	0	0	---	0.00	30.084 
00:50	50.8	50.8	50.8	77	43.9	0	0	---	0.00	30.085 
00:55	50.4	50.4	50.4	77	43.5	0	0	---	0.00	30.085 
01:00	50.1	50.1	50.1	78	43.5	0	0	---	0.00	30.085 
01:05	49.8	49.8	49.8	79	43.6	0	0	---	0.00	30.087 
01:10	49.5	49.5	49.5	80	43.6	0	0	---	0.00	30.088 
01:15	49.2	49.2	49.2	81	43.6	0	0	---	0.00	30.088 
01:20	49.1	49.1	49.1	81	43.5	0	0	---	0.00	30.090 
01:25	48.9	48.9	48.9	82	43.6	0	0	---	0.00	30.095 
01:30	48.8	48.8	48.8	82	43.6	0	0	---	0.00	30.098 
01:35	48.5	48.5	48.5	83	43.6	0	0	---	0.00	30.098 
01:40	48.3	48.3	48.3	83	43.4	0	0	---	0.00	30.101 
01:45	48.0	48.0	48.0	84	43.4	0	0	---	0.00	30.100 
01:50	47.9	47.9	47.9	84	43.3	0	0	---	0.00	30.100 
01:55	47.6	47.6	47.6	85	43.3	0	0	---	0.00	30.097 
02:00	47.6	47.6	47.6	85	43.3	0	0	---	0.00	30.096 
02:05	47.4	47.4	47.4	85	43.1	0	0	---	0.00	30.092 
02:10	47.1	47.1	47.1	86	43.1	0	0	---	0.00	30.093 
02:15	47.0	47.0	47.0	86	43.0	0	0	---	0.00	30.089 
02:20	46.8	46.8	46.8	86	42.8	0	0	---	0.00	30.092 
02:25	46.7	46.7	46.7	87	43.0	0	1	90	0.00	30.089 
02:30	46.7	46.7	46.7	87	43.0	0	0	---	0.00	30.085 
02:35	46.5	46.5	46.5	87	42.8	0	0	---	0.00	30.085 
02:40	46.5	46.5	46.5	87	42.8	0	0	---	0.00	30.084 
02:45	46.4	46.4	46.4	87	42.7	0	0	---	0.00	30.086 
02:50	46.4	46.4	46.4	88	43.0	0	0	---	0.00	30.087 
02:55	46.2	46.2	46.2	88	42.8	0	0	---	0.00	30.087 
03:00	46.2	46.2	46.2	88	42.8	0	0	---	0.00	30.090 
03:05	46.2	46.2	46.2	88	42.8	0	0	---	0.00	30.089 
03:10	46.1	46.1	46.1	88	42.7	0	0	---	0.00	30.087 
03:15	46.0	46.0	46.0	88	42.6	0	0	---	0.00	30.090 
03:20	46.0	46.0	46.0	89	42.9	0	0	---	0.00	30.091 
03:25	45.8	45.8	45.8	89	42.7	0	0	---	0.00	30.094 
03:30	45.7	45.7	45.7	89	42.6	0	0	---	0.00	30.092 
03:35	45.5	45.5	45.5	89	42.4	0	0	---	0.00	30.088 
03:40	45.4	45.4	45.4	89	42.3	0	0	---	0.00	30.088 
03:45	45.2	45.2	45.2	89	42.2	0	0	---	0.00	30.088 
03:50	45.1	45.1	45.1	90	42.3	0	0	---	0.00	30.086 
03:55	45.1	45.1	45.1	90	42.3	0	0	---	0.00	30.087 
04:00	44.9	44.9	44.9	90	42.1	0	0	---	0.00	30.086 
04:05	44.9	44.9	44.9	90	42.1	0	0	---	0.00	30.088 
04:10	44.9	44.9	44.9	91	42.4	0	0	---	0.00	30.089 
04:15	44.9	44.9	44.9	90	42.1	0	0	---	0.00	30.088 
04:20	44.9	44.9	44.9	90	42.1	0	0	---	0.00	30.088 
04:25	44.8	44.8	44.8	91	42.3	0	0	---	0.00	30.090 
04:30	44.8	44.8	44.8	91	42.3	0	0	---	0.00	30.092 
04:35	44.6	44.6	44.6	91	42.1	0	0	---	0.00	30.090 
04:40	44.5	44.5	44.5	91	42.0	0	0	---	0.00	30.092 
04:45	44.3	44.3	44.3	91	41.8	0	0	---	0.00	30.095 
04:50	44.2	44.2	44.2	91	41.7	0	0	---	0.00	30.094 
04:55	44.1	44.1	44.1	91	41.6	0	0	---	0.00	30.090 
05:00	43.9	43.9	43.9	91	41.4	0	0	---	0.00	30.087 
05:05	43.9	43.9	43.9	92	41.7	0	1	90	0.00	30.086 
05:10	43.9	43.9	43.9	92	41.7	0	0	---	0.00	30.089 
05:15	43.9	43.9	43.9	92	41.7	0	0	---	0.00	30.088 
05:20	43.9	43.9	43.9	92	41.7	0	0	---	0.00	30.088 
05:25	43.9	43.9	43.9	92	41.7	0	0	---	0.00	30.089 
05:30	44.1	44.1	44.1	92	41.9	0	0	---	0.00	30.090 
05:35	44.1	44.1	44.1	92	41.9	0	0	---	0.00	30.089 
05:40	44.3	44.3	44.3	93	42.4	0	1	90	0.00	30.089 
05:45	44.3	44.3	44.3	92	42.1	0	0	---	0.00	30.090 
05:50	44.5	44.5	44.5	93	42.6	0	1	90	0.00	30.088 
05:55	44.8	44.8	44.8	92	42.6	0	1	90	0.00	30.089 
06:00	45.2	45.2	45.2	92	43.0	0	1	90	0.00	30.086 
06:05	45.8	45.8	45.8	91	43.3	0	1	90	0.00	30.083 
06:10	46.2	46.2	46.2	90	43.4	0	1	90	0.00	30.086 
06:15	47.0	47.0	47.0	89	43.9	0	1	90	0.00	30.083 
06:20	48.0	48.0	48.0	86	44.0	0	1	90	0.00	30.084 
06:25	49.1	49.1	49.1	84	44.5	0	1	90	0.00	30.083 
06:30	50.1	50.1	50.1	80	44.2	0	1	90	0.00	30.085 
06:35	51.1	51.1	51.1	78	44.5	0	1	90	0.00	30.085 
06:40	51.9	51.9	51.9	76	44.6	0	2	90	0.00	30.084 
06:45	52.5	52.5	52.5	74	44.5	0	2	90	0.00	30.085 
06:50	53.3	53.3	53.3	71	44.1	0	1	90	0.00	30.085 
06:55	54.4	54.4	54.4	69	44.4	0	1	90	0.00	30.085 
07:00	55.0	55.0	55.0	68	44.6	0	2	90	0.00	30.082 
07:05	55.6	55.6	55.6	67	44.8	0	3	90	0.00	30.086 
07:10	56.0	56.0	56.0	66	44.8	1	3	90	0.00	30.081 
07:15	56.3	56.3	56.3	65	44.7	0	2	90	0.00	30.083 
07:20	57.2	57.2	57.2	62	44.3	1	3	90	0.00	30.083 
07:25	58.0	58.0	58.0	60	44.2	0	1	90	0.00	30.086 
07:30	58.7	58.7	58.7	60	44.8	1	3	90	0.00	30.086 
07:35	59.2	59.2	59.2	60	45.3	1	4	112	0.00	30.084 
07:40	59.5	59.5	59.5	60	45.6	1	4	112	0.00	30.083 
07:45	59.8	59.8	59.8	56	44.1	1	4	112	0.00	30.082 
07:50	60.2	60.2	60.2	57	44.9	1	3	112	0.00	30.081 
07:55	61.0	61.0	61.0	56	45.2	0	1	90	0.00	30.081 
08:00	61.8	61.8	61.8	56	45.9	0	1	90	0.00	30.077 
08:05	62.6	62.6	62.6	50	43.7	1	4	90	0.00	30.084 
08:10	63.2	63.2	63.2	53	45.8	0	2	90	0.00	30.084 
08:15	63.5	63.5	63.5	50	44.5	1	5	112	0.00	30.083 
08:20	63.9	63.9	63.9	50	44.9	1	3	112	0.00	30.082 
08:25	64.3	64.3	64.3	48	44.2	1	4	112	0.00	30.082 
08:30	64.8	64.8	64.8	47	44.1	1	3	135	0.00	30.072 
08:35	65.0	65.0	65.0	46	43.7	2	5	112	0.00	30.072 
08:40	64.8	64.8	64.8	46	43.5	2	6	112	0.00	30.072 
08:45	65.0	65.0	65.0	44	42.6	2	4	112	0.00	30.078 
08:50	65.0	65.0	65.0	44	42.6	2	7	135	0.00	30.077 
08:55	65.5	65.5	65.5	44	43.0	2	5	90	0.00	30.073 
09:00	65.8	65.8	65.8	44	43.3	2	6	112	0.00	30.067 
09:05	66.1	66.1	66.1	41	41.7	2	6	112	0.00	30.067 
09:10	66.4	66.4	66.4	41	42.0	2	7	112	0.00	30.067 
09:15	66.6	66.6	66.6	41	42.2	2	5	112	0.00	30.066 
09:20	66.9	66.9	66.9	41	42.4	2	4	90	0.00	30.066 
09:25	67.1	67.1	67.1	42	43.2	3	6	90	0.00	30.066 
09:30	67.3	67.3	67.3	42	43.4	2	6	90	0.00	30.064 
09:35	67.8	67.8	67.8	40	42.6	2	5	112	0.00	30.064 
09:40	68.1	68.1	68.1	42	44.1	1	4	248	0.00	30.065 
09:45	67.9	67.9	67.9	42	44.0	2	6	112	0.00	30.065 
09:50	68.4	68.4	68.4	41	43.8	1	5	90	0.00	30.065 
09:55	68.6	68.6	68.6	41	44.0	1	5	90	0.00	30.059 
10:00	68.6	68.6	68.6	39	42.6	2	5	90	0.00	30.052 
10:05	68.6	68.6	68.6	39	42.6	2	7	90	0.00	30.048 
10:10	68.8	68.8	68.8	39	42.8	2	4	112	0.00	30.049 
10:15	69.1	69.1	69.1	39	43.1	1	4	90	0.00	30.049 
10:20	69.4	69.4	69.4	43	45.9	2	7	270	0.00	30.051 
10:25	69.3	69.3	69.3	39	43.3	2	5	248	0.00	30.048 
10:30	69.6	69.6	69.6	39	43.5	1	4	112	0.00	30.047 
10:35	70.1	70.1	70.1	41	45.3	2	4	112	0.00	30.047 
10:40	70.3	70.3	70.3	40	44.8	2	6	112	0.00	30.045 
10:45	70.3	70.3	70.3	36	42.1	2	5	90	0.00	30.046 
10:50	70.6	70.6	70.6	37	43.1	1	3	248	0.00	30.046 
10:55	70.9	70.9	70.9	39	44.7	1	3	292	0.00	30.046 
11:00	70.9	70.9	70.9	33	40.3	1	9	292	0.00	30.042 
11:05	70.6	70.6	70.6	35	41.6	2	5	90	0.00	30.037 
11:10	70.6	70.6	70.6	35	41.6	2	4	135	0.00	30.035 
11:15	70.8	70.8	70.8	35	41.8	1	3	135	0.00	30.037 
11:20	71.3	71.3	71.3	36	43.0	1	3	270	0.00	30.035 
11:25	71.1	71.1	71.1	35	42.0	1	5	270	0.00	30.034 
11:30	71.1	71.1	71.1	37	43.5	2	5	248	0.00	30.032 
11:35	71.1	71.1	71.1	35	42.0	1	3	248	0.00	30.031 
11:40	72.0	72.0	72.0	39	45.7	1	5	112	0.00	30.028 
11:45	72.0	72.0	72.0	36	43.6	2	5	248	0.00	30.025 
11:50	72.0	72.0	72.0	36	43.6	1	3	248	0.00	30.020 
11:55	72.3	72.3	72.3	35	43.1	1	3	68	0.00	30.016 
12:00	72.3	72.3	72.3	38	45.3	2	5	248	0.00	30.015 
12:05	72.5	72.5	72.5	35	43.3	2	7	248	0.00	30.017 
12:10	72.3	72.3	72.3	37	44.6	1	3	248	0.00	30.016 
12:15	72.7	72.7	72.7	33	41.9	2	6	90	0.00	30.016 
12:20	72.7	72.7	72.7	33	41.9	2	5	225	0.00	30.018 
12:25	72.5	72.5	72.5	33	41.7	2	4	270	0.00	30.018 
12:30	72.3	72.3	72.3	36	43.8	2	6	248	0.00	30.016 
12:35	72.8	72.8	72.8	37	45.0	1	4	248	0.00	30.011 
12:40	73.3	73.3	73.3	30	40.0	2	6	270	0.00	30.012 
12:45	73.3	73.3	73.3	32	41.6	2	5	135	0.00	30.007 
12:50	73.9	73.9	73.9	31	41.3	1	4	135	0.00	30.003 
12:55	74.0	74.0	74.0	34	43.8	1	4	270	0.00	30.003 
13:00	74.0	74.0	74.0	37	46.1	1	3	270	0.00	30.003 
13:05	74.0	74.0	74.0	34	43.8	2	7	112	0.00	30.003 
13:10	74.0	74.0	74.0	32	42.3	1	4	225	0.00	30.001 
13:15	74.2	74.2	74.2	32	42.4	1	6	225	0.00	29.997 
13:20	74.2	74.2	74.2	28	39.0	3	6	90	0.00	29.993 
13:25	74.0	74.0	74.0	30	40.6	2	6	90	0.00	30.001 
13:30	73.9	73.9	73.9	30	40.5	2	4	112	0.00	29.993 
13:35	74.0	74.0	74.0	31	41.4	1	5	112	0.00	29.989 
13:40	74.7	74.7	74.7	34	44.4	1	4	90	0.00	29.987 
13:45	75.1	75.1	77.2	33	44.0	1	6	90	0.00	29.986 
13:50	75.1	75.1	76.8	28	39.8	1	3	112	0.00	29.983 
13:55	75.3	75.3	77.0	30	41.7	2	4	68	0.00	29.979 
14:00	75.1	75.1	76.8	28	39.8	1	9	270	0.00	29.974 
14:05	74.6	74.6	74.6	29	40.2	1	4	248	0.00	29.977 
14:10	74.6	74.6	74.6	31	42.0	1	3	270	0.00	29.982 
14:15	74.9	74.9	74.9	31	42.2	1	3	292	0.00	29.975 
14:20	75.3	75.3	77.0	30	41.7	1	5	270	0.00	29.977 
14:25	75.4	75.4	77.1	31	42.6	1	5	270	0.00	29.978 
14:30	75.6	75.6	77.1	30	42.0	1	5	90	0.00	29.979 
14:35	75.8	75.8	77.1	29	41.3	2	5	248	0.00	29.979 
14:40	76.0	76.0	77.1	28	40.5	2	5	225	0.00	29.973 
14:45	76.0	76.0	77.3	30	42.3	1	4	248	0.00	29.971 
14:50	76.1	76.1	77.2	28	40.6	1	4	292	0.00	29.971 
14:55	76.7	76.7	77.5	29	42.0	0	2	90	0.00	29.971 
15:00	77.4	77.4	77.7	28	41.7	1	4	90	0.00	29.972 
15:05	77.7	77.7	78.0	31	44.6	1	3	270	0.00	29.970 
15:10	77.9	77.9	77.9	28	42.1	1	3	270	0.00	29.970 
15:15	77.9	77.9	77.8	26	40.2	1	3	270	0.00	29.960 
15:20	77.6	77.6	77.8	28	41.9	1	4	270	0.00	29.957 
15:25	77.6	77.6	77.7	27	41.0	1	4	90	0.00	29.955 
15:30	77.6	77.6	77.9	30	43.7	2	5	90	0.00	29.954 
15:35	76.8	76.8	77.5	28	41.2	1	4	248	0.00	29.950 
15:40	76.5	76.5	77.3	28	41.0	1	4	248	0.00	29.940 
15:45	76.7	76.7	77.4	28	41.1	1	4	248	0.00	29.935 
15:50	77.2	77.2	77.8	31	44.2	1	3	248	0.00	29.940 
15:55	77.2	77.2	77.6	27	40.6	1	4	112	0.00	29.938 
16:00	76.7	76.7	77.4	28	41.1	1	3	248	0.00	29.936 
16:05	76.3	76.3	77.2	27	39.8	1	3	248	0.00	29.938 
16:10	76.1	76.1	77.2	29	41.5	1	2	338	0.00	29.935 
16:15	76.1	76.1	77.2	28	40.6	2	6	112	0.00	29.929 
16:20	76.1	76.1	77.2	29	41.5	1	3	112	0.00	29.928 
16:25	76.0	76.0	77.1	28	40.5	1	4	135	0.00	29.925 
16:30	76.0	76.0	77.1	28	40.5	1	3	90	0.00	29.924 
16:35	76.3	76.3	77.3	29	41.7	1	3	90	0.00	29.912 
16:40	76.3	76.3	77.5	31	43.4	1	3	270	0.00	29.912 
16:45	76.1	76.1	77.1	27	39.7	1	5	68	0.00	29.921 
16:50	76.1	76.1	77.2	28	40.6	1	4	248	0.00	29.917 
16:55	76.3	76.3	77.2	27	39.8	1	3	22	0.00	29.908 
17:00	76.3	76.3	77.4	30	42.6	1	4	270	0.00	29.906 
17:05	76.5	76.5	77.4	29	41.9	1	4	248	0.00	29.898 
17:10	76.7	76.7	77.4	28	41.1	2	5	90	0.00	29.893 
17:15	77.2	77.2	77.6	27	40.6	1	4	90	0.00	29.893 
17:20	77.4	77.4	77.7	28	41.7	1	3	112	0.00	29.889 
17:25	77.2	77.2	77.6	28	41.6	1	4	112	0.00	29.892 
17:30	76.7	76.7	77.4	28	41.1	1	7	292	0.00	29.890 
17:35	76.5	76.5	77.3	28	41.0	2	4	90	0.00	29.882 
17:40	76.5	76.5	77.4	29	41.9	2	6	90	0.00	29.874 
17:45	76.5	76.5	77.3	28	41.0	2	6	270	0.00	29.874 
17:50	76.5	76.5	77.5	31	43.6	1	5	270	0.00	29.877 
17:55	76.3	76.3	77.4	30	42.6	1	5	45	0.00	29.873 
18:00	76.5	76.5	77.4	29	41.9	1	3	112	0.00	29.874 
18:05	76.3	76.3	77.5	32	44.3	1	5	270	0.00	29.863 
18:10	76.0	76.0	77.3	31	43.2	1	4	90	0.00	29.863 
18:15	76.0	76.0	77.5	33	44.8	0	1	90	0.00	29.862 
18:20	75.8	75.8	77.3	32	43.8	0	3	90	0.00	29.860 
18:25	75.6	75.6	77.3	33	44.5	0	2	90	0.00	29.856 
18:30	75.4	75.4	77.3	34	45.1	0	2	90	0.00	29.858 
18:35	75.3	75.3	77.2	33	44.2	0	2	90	0.00	29.856 
18:40	75.1	75.1	77.2	34	44.8	0	3	90	0.00	29.854 
18:45	74.9	74.9	74.9	34	44.6	0	1	90	0.00	29.855 
18:50	74.7	74.7	74.7	35	45.2	0	2	90	0.00	29.853 
18:55	74.7	74.7	74.7	35	45.2	1	3	90	0.00	29.850 
19:00	74.7	74.7	74.7	33	43.7	0	1	90	0.00	29.849 
19:05	74.7	74.7	74.7	34	44.4	0	1	90	0.00	29.844 
19:10	74.6	74.6	74.6	34	44.4	0	2	90	0.00	29.835 
19:15	74.4	74.4	74.4	35	44.9	0	1	90	0.00	29.834 
19:20	74.2	74.2	74.2	37	46.2	0	0	---	0.00	29.834 
19:25	73.9	73.9	73.9	35	44.5	0	2	90	0.00	29.832 
19:30	73.7	73.7	73.7	35	44.3	0	2	90	0.00	29.831 
19:35	73.7	73.7	73.7	36	45.1	0	1	90	0.00	29.830 
19:40	73.2	73.2	73.2	37	45.4	0	0	---	0.00	29.831 
19:45	72.8	72.8	72.8	37	45.0	0	2	90	0.00	29.829 
19:50	72.7	72.7	72.7	38	45.6	0	1	90	0.00	29.826 
19:55	72.3	72.3	72.3	38	45.3	0	1	90	0.00	29.829 
20:00	72.0	72.0	72.0	39	45.7	0	1	90	0.00	29.829 
20:05	71.6	71.6	71.6	38	44.6	0	1	90	0.00	29.821 
20:10	71.6	71.6	71.6	39	45.3	0	2	90	0.00	29.820 
20:15	71.5	71.5	71.5	39	45.2	0	1	90	0.00	29.817 
20:20	71.3	71.3	71.3	40	45.7	0	1	90	0.00	29.819 
20:25	70.9	70.9	70.9	41	46.0	0	1	90	0.00	29.817 
20:30	70.8	70.8	70.8	40	45.3	0	2	90	0.00	29.821 
20:35	70.4	70.4	70.4	41	45.6	0	0	---	0.00	29.820 
20:40	70.1	70.1	70.1	42	45.9	0	0	---	0.00	29.819 
20:45	69.6	69.6	69.6	43	46.1	0	1	90	0.00	29.828 
20:50	69.3	69.3	69.3	44	46.4	0	0	---	0.00	29.834 
20:55	68.9	68.9	68.9	45	46.7	0	0	---	0.00	29.838 
21:00	68.6	68.6	68.6	45	46.4	0	0	---	0.00	29.837 
21:05	68.3	68.3	68.3	46	46.7	0	0	---	0.00	29.834 
21:10	67.9	67.9	67.9	46	46.3	0	0	---	0.00	29.833 
21:15	67.6	67.6	67.6	47	46.6	0	0	---	0.00	29.832 
21:20	67.3	67.3	67.3	48	46.9	0	0	---	0.00	29.828 
21:25	66.9	66.9	66.9	49	47.1	0	0	---	0.00	29.823 
21:30	66.6	66.6	66.6	49	46.8	0	0	---	0.00	29.819 
21:35	66.3	66.3	66.3	50	47.1	0	0	---	0.00	29.820 
21:40	66.0	66.0	66.0	51	47.3	0	0	---	0.00	29.822 
21:45	65.6	65.6	65.6	51	47.0	0	0	---	0.00	29.820 
21:50	65.5	65.5	65.5	52	47.4	0	0	---	0.00	29.819 
21:55	65.2	65.2	65.2	53	47.6	0	0	---	0.00	29.818 
22:00	65.0	65.0	65.0	54	47.9	0	0	---	0.00	29.814 
22:05	64.8	64.8	64.8	55	48.2	0	0	---	0.00	29.813 
22:10	64.7	64.7	64.7	54	47.7	0	0	---	0.00	29.810 
22:15	64.7	64.7	64.7	55	48.2	0	0	---	0.00	29.813 
22:20	64.5	64.5	64.5	55	48.0	0	0	---	0.00	29.810 
22:25	64.7	64.7	64.7	58	49.6	0	0	---	0.00	29.814 
22:30	64.8	64.8	64.8	55	48.2	0	1	90	0.00	29.805 
22:35	65.3	65.3	65.3	55	48.7	0	0	---	0.00	29.807 
22:40	65.6	65.6	65.6	55	49.0	0	1	90	0.00	29.814 
22:45	65.6	65.6	65.6	55	49.0	0	0	---	0.00	29.806 
22:50	65.5	65.5	65.5	56	49.4	0	0	---	0.00	29.802 
22:55	65.3	65.3	65.3	56	49.2	0	0	---	0.00	29.800 
23:00	65.0	65.0	65.0	56	48.9	0	0	---	0.00	29.801 
23:05	65.0	65.0	65.0	56	48.9	0	0	---	0.00	29.797 
23:10	65.0	65.0	65.0	56	48.9	0	1	90	0.00	29.792 
23:15	65.0	65.0	65.0	56	48.9	0	0	---	0.00	29.786 
23:20	65.0	65.0	65.0	56	48.9	0	1	90	0.00	29.785 
23:25	64.8	64.8	64.8	57	49.2	0	1	90	0.00	29.786 
23:30	64.7	64.7	64.7	57	49.1	0	0	---	0.00	29.787 
23:35	64.5	64.5	64.5	57	48.9	0	0	---	0.00	29.793 
23:40	64.3	64.3	64.3	58	49.2	0	0	---	0.00	29.800 
23:45	64.2	64.2	64.2	58	49.1	0	0	---	0.00	29.803 
23:50	63.9	63.9	63.9	58	48.8	0	0	---	0.00	29.806 
23:55	63.7	63.7	63.7	59	49.1	0	0	---	0.00	29.803 

CoCoRaHS
IN-AL-39
A2 Web Hosting
Creative Commons License
GoDaddy
Look for:

loaded 2017-12-10 21:34:15 • last modified 2010-11-18 10:43:29
Privacy PolicyDisclaimer
• wx.awcolley.com is powered by PmWiki v.2002016 •
• all content (unless otherwise noted) © 2017 A W Colley